createdAt,value
2017-10-13T00:00:03.717Z,12.60
2017-10-13T00:00:07.964Z,12.55
2017-10-13T00:00:12.237Z,12.37
2017-10-13T00:00:16.494Z,11.55
2017-10-13T00:00:22.912Z,11.55
2017-10-13T00:00:27.171Z,11.98
2017-10-13T00:00:31.419Z,12.05
2017-10-13T00:00:36.471Z,11.55
2017-10-13T00:00:41.588Z,11.10
2017-10-13T00:00:45.888Z,11.30
2017-10-13T00:00:50.153Z,11.33
2017-10-13T00:00:54.405Z,11.15
2017-10-13T00:00:58.673Z,11.50
2017-10-13T00:01:02.971Z,10.80
2017-10-13T00:01:07.284Z,10.60
2017-10-13T00:01:12.432Z,10.70
2017-10-13T00:01:17.428Z,11.13
2017-10-13T00:01:22.440Z,11.27
2017-10-13T00:01:27.461Z,10.63
2017-10-13T00:01:32.487Z,10.77
2017-10-13T00:01:36.744Z,11.00
2017-10-13T00:01:41.010Z,11.20
2017-10-13T00:01:45.316Z,11.05
2017-10-13T00:01:49.692Z,11.30
2017-10-13T00:01:53.965Z,11.07
2017-10-13T00:01:58.222Z,10.75
2017-10-13T00:02:02.491Z,10.60
2017-10-13T00:02:07.486Z,10.27
2017-10-13T00:02:12.523Z,10.33
2017-10-13T00:02:16.799Z,9.97
2017-10-13T00:02:21.058Z,9.70
2017-10-13T00:02:25.304Z,10.40
2017-10-13T00:02:30.335Z,10.60
2017-10-13T00:02:35.352Z,11.13
2017-10-13T00:02:39.643Z,11.37
2017-10-13T00:02:44.668Z,11.55
2017-10-13T00:02:49.777Z,10.80
2017-10-13T00:02:54.803Z,10.90
2017-10-13T00:02:59.153Z,11.33
2017-10-13T00:03:03.404Z,12.23
2017-10-13T00:03:08.447Z,12.80
2017-10-13T00:03:12.696Z,12.70
2017-10-13T00:03:16.953Z,13.15
2017-10-13T00:03:21.205Z,13.65
2017-10-13T00:03:26.243Z,15.10
2017-10-13T00:03:31.272Z,15.10
2017-10-13T00:03:36.325Z,14.80
2017-10-13T00:03:40.576Z,14.93
2017-10-13T00:03:45.593Z,15.50
2017-10-13T00:03:49.924Z,16.17
2017-10-13T00:03:54.180Z,15.43
2017-10-13T00:03:59.375Z,15.10
2017-10-13T00:04:03.619Z,14.83
2017-10-13T00:04:08.700Z,14.65
2017-10-13T00:04:12.928Z,14.90
2017-10-13T00:04:17.205Z,14.43
2017-10-13T00:04:21.460Z,13.95
2017-10-13T00:04:25.724Z,12.65
2017-10-13T00:04:30.014Z,12.35
2017-10-13T00:04:35.101Z,12.13
2017-10-13T00:04:39.345Z,11.83
2017-10-13T00:04:43.652Z,11.00
2017-10-13T00:04:47.916Z,10.85
2017-10-13T00:04:52.185Z,10.90
2017-10-13T00:04:56.445Z,10.90
2017-10-13T00:05:00.699Z,10.55
2017-10-13T00:05:05.734Z,10.40
2017-10-13T00:05:09.988Z,10.10
2017-10-13T00:05:15.016Z,10.35
2017-10-13T00:05:20.057Z,11.70
2017-10-13T00:05:24.304Z,11.53
2017-10-13T00:05:28.570Z,11.05
2017-10-13T00:05:32.828Z,11.63
2017-10-13T00:05:37.850Z,12.80
2017-10-13T00:05:42.920Z,13.60
2017-10-13T00:05:47.179Z,14.40
2017-10-13T00:05:51.480Z,14.60
2017-10-13T00:05:55.732Z,15.40
2017-10-13T00:05:59.991Z,15.65
2017-10-13T00:06:04.233Z,15.75
2017-10-13T00:06:08.507Z,16.15
2017-10-13T00:06:12.760Z,16.27
2017-10-13T00:06:17.787Z,14.95
2017-10-13T00:06:22.082Z,14.83
2017-10-13T00:06:26.333Z,14.70
2017-10-13T00:06:30.589Z,14.67
2017-10-13T00:06:35.631Z,13.40
2017-10-13T00:06:39.924Z,13.67
2017-10-13T00:06:44.921Z,12.60
2017-10-13T00:06:49.951Z,12.07
2017-10-13T00:06:54.227Z,11.97
2017-10-13T00:06:58.482Z,12.60
2017-10-13T00:07:02.820Z,12.90
2017-10-13T00:07:07.097Z,13.15
2017-10-13T00:07:11.347Z,13.25
2017-10-13T00:07:15.608Z,13.37
2017-10-13T00:07:19.945Z,13.10
2017-10-13T00:07:24.968Z,13.30
2017-10-13T00:07:29.989Z,13.30
2017-10-13T00:07:35.025Z,13.20
2017-10-13T00:07:39.293Z,12.95
2017-10-13T00:07:43.545Z,12.90
2017-10-13T00:07:47.796Z,13.20
2017-10-13T00:07:52.189Z,12.80
2017-10-13T00:07:56.469Z,12.33
2017-10-13T00:08:00.710Z,13.45
2017-10-13T00:08:05.006Z,13.45
2017-10-13T00:08:10.018Z,12.73
2017-10-13T00:08:15.028Z,12.60
2017-10-13T00:08:20.072Z,12.67
2017-10-13T00:08:25.081Z,13.23
2017-10-13T00:08:30.097Z,13.50
2017-10-13T00:08:34.348Z,13.60
2017-10-13T00:08:38.598Z,13.80
2017-10-13T00:08:43.615Z,14.00
2017-10-13T00:08:48.627Z,13.83
2017-10-13T00:08:52.879Z,14.93
2017-10-13T00:08:57.493Z,15.20
2017-10-13T00:09:02.525Z,13.90
2017-10-13T00:09:06.782Z,13.73
2017-10-13T00:09:11.045Z,14.17
2017-10-13T00:09:15.305Z,14.70
2017-10-13T00:09:19.608Z,14.85
2017-10-13T00:09:23.878Z,15.00
2017-10-13T00:09:28.149Z,15.40
2017-10-13T00:09:32.397Z,16.35
2017-10-13T00:09:36.666Z,15.85
2017-10-13T00:09:41.677Z,15.33
2017-10-13T00:09:46.691Z,15.50
2017-10-13T00:09:50.967Z,15.33
2017-10-13T00:09:55.202Z,14.00
2017-10-13T00:10:01.255Z,14.00
2017-10-13T00:10:06.368Z,13.66
2017-10-13T00:10:11.388Z,13.40
2017-10-13T00:10:16.456Z,12.50
2017-10-13T00:10:20.698Z,12.30
2017-10-13T00:10:25.716Z,12.35
2017-10-13T00:10:30.748Z,12.00
2017-10-13T00:10:35.848Z,11.97
2017-10-13T00:10:40.880Z,12.23
2017-10-13T00:10:45.893Z,12.20
2017-10-13T00:10:50.914Z,11.60
2017-10-13T00:10:55.977Z,11.37
2017-10-13T00:11:00.988Z,11.40
2017-10-13T00:11:05.289Z,11.70
2017-10-13T00:11:09.591Z,11.50
2017-10-13T00:11:13.839Z,11.50
2017-10-13T00:11:18.874Z,11.45
2017-10-13T00:11:23.927Z,11.43
2017-10-13T00:11:28.176Z,10.50
2017-10-13T00:11:32.450Z,10.07
2017-10-13T00:11:36.696Z,9.95
2017-10-13T00:11:41.712Z,9.85
2017-10-13T00:11:46.721Z,10.07
2017-10-13T00:11:51.745Z,10.33
2017-10-13T00:11:56.758Z,10.70
2017-10-13T00:12:01.013Z,10.70
2017-10-13T00:12:05.271Z,10.57
2017-10-13T00:12:10.361Z,10.90
2017-10-13T00:12:14.624Z,11.53
2017-10-13T00:12:18.992Z,11.95
2017-10-13T00:12:24.009Z,11.70
2017-10-13T00:12:29.069Z,11.97
2017-10-13T00:12:33.335Z,11.90
2017-10-13T00:12:37.584Z,11.85
2017-10-13T00:12:41.932Z,11.90
2017-10-13T00:12:47.039Z,11.83
2017-10-13T00:12:51.412Z,11.43
2017-10-13T00:12:55.752Z,11.15
2017-10-13T00:13:00.768Z,11.60
2017-10-13T00:13:05.790Z,11.80
2017-10-13T00:13:10.801Z,11.83
2017-10-13T00:13:15.843Z,11.50
2017-10-13T00:13:20.127Z,11.30
2017-10-13T00:13:25.157Z,11.50
2017-10-13T00:13:29.441Z,11.57
2017-10-13T00:13:34.460Z,12.40
2017-10-13T00:13:39.475Z,12.60
2017-10-13T00:13:44.490Z,12.77
2017-10-13T00:13:48.792Z,12.53
2017-10-13T00:13:53.056Z,12.70
2017-10-13T00:13:57.356Z,12.55
2017-10-13T00:14:01.605Z,12.05
2017-10-13T00:14:05.905Z,12.30
2017-10-13T00:14:10.164Z,11.95
2017-10-13T00:14:14.420Z,11.55
2017-10-13T00:14:18.711Z,11.43
2017-10-13T00:14:23.729Z,11.60
2017-10-13T00:14:28.890Z,11.07
2017-10-13T00:14:33.913Z,10.63
2017-10-13T00:14:38.169Z,10.37
2017-10-13T00:14:43.185Z,10.00
2017-10-13T00:14:48.228Z,10.90
2017-10-13T00:14:52.465Z,11.37
2017-10-13T00:14:56.804Z,11.43
2017-10-13T00:15:01.092Z,11.65
2017-10-13T00:15:05.382Z,11.40
2017-10-13T00:15:09.641Z,11.97
2017-10-13T00:15:13.898Z,12.00
2017-10-13T00:15:18.922Z,11.80
2017-10-13T00:15:23.936Z,12.00
2017-10-13T00:15:29.034Z,13.37
2017-10-13T00:15:33.281Z,13.63
2017-10-13T00:15:37.540Z,14.20
2017-10-13T00:15:42.659Z,15.10
2017-10-13T00:15:46.907Z,15.03
2017-10-13T00:15:51.159Z,15.20
2017-10-13T00:15:55.481Z,15.03
2017-10-13T00:16:00.521Z,14.95
2017-10-13T00:16:04.789Z,14.97
2017-10-13T00:16:09.071Z,14.30
2017-10-13T00:16:13.332Z,14.73
2017-10-13T00:16:17.584Z,15.30
2017-10-13T00:16:21.833Z,14.80
2017-10-13T00:16:26.082Z,14.15
2017-10-13T00:16:30.431Z,13.60
2017-10-13T00:16:35.464Z,13.20
2017-10-13T00:16:39.715Z,12.10
2017-10-13T00:16:44.725Z,11.40
2017-10-13T00:16:49.111Z,10.87
2017-10-13T00:16:53.378Z,10.67
2017-10-13T00:16:57.629Z,10.65
2017-10-13T00:17:02.052Z,11.25
2017-10-13T00:17:07.068Z,11.20
2017-10-13T00:17:12.090Z,11.43
2017-10-13T00:17:17.132Z,11.03
2017-10-13T00:17:21.379Z,11.07
2017-10-13T00:17:26.429Z,10.65
2017-10-13T00:17:30.680Z,10.53
2017-10-13T00:17:34.940Z,10.70
2017-10-13T00:17:39.217Z,11.05
2017-10-13T00:17:44.260Z,12.90
2017-10-13T00:17:48.600Z,12.83
2017-10-13T00:17:52.867Z,12.95
2017-10-13T00:17:57.137Z,12.73
2017-10-13T00:18:02.305Z,12.05
2017-10-13T00:18:06.560Z,12.30
2017-10-13T00:18:10.816Z,12.20
2017-10-13T00:18:15.891Z,12.00
2017-10-13T00:18:20.917Z,12.00
2017-10-13T00:18:25.208Z,12.33
2017-10-13T00:18:29.472Z,12.40
2017-10-13T00:18:33.733Z,13.40
2017-10-13T00:18:37.992Z,14.10
2017-10-13T00:18:42.275Z,12.20
2017-10-13T00:18:46.513Z,12.20
2017-10-13T00:18:51.527Z,11.80
2017-10-13T00:18:55.897Z,11.53
2017-10-13T00:19:00.136Z,11.55
2017-10-13T00:19:04.407Z,11.15
2017-10-13T00:19:08.888Z,10.87
2017-10-13T00:19:13.145Z,11.15
2017-10-13T00:19:18.189Z,10.80
2017-10-13T00:19:22.460Z,10.63
2017-10-13T00:19:27.502Z,11.37
2017-10-13T00:19:31.772Z,10.80
2017-10-13T00:19:36.788Z,9.95
2017-10-13T00:19:41.856Z,9.30
2017-10-13T00:19:46.102Z,10.10
2017-10-13T00:19:51.130Z,10.65
2017-10-13T00:19:55.499Z,10.63
2017-10-13T00:19:59.750Z,10.70
2017-10-13T00:20:03.995Z,11.05
2017-10-13T00:20:08.271Z,11.10
2017-10-13T00:20:12.570Z,11.30
2017-10-13T00:20:16.812Z,11.70
2017-10-13T00:20:21.293Z,11.70
2017-10-13T00:20:25.569Z,11.17
2017-10-13T00:20:29.811Z,11.50
2017-10-13T00:20:34.117Z,11.50
2017-10-13T00:20:39.164Z,11.27
2017-10-13T00:20:44.180Z,10.70
2017-10-13T00:20:49.241Z,10.20
2017-10-13T00:20:53.493Z,10.07
2017-10-13T00:20:58.507Z,10.10
2017-10-13T00:21:03.524Z,10.17
2017-10-13T00:21:08.630Z,10.10
2017-10-13T00:21:12.873Z,9.90
2017-10-13T00:21:17.140Z,10.57
2017-10-13T00:21:21.404Z,11.20
2017-10-13T00:21:25.655Z,10.95
2017-10-13T00:21:30.696Z,10.40
2017-10-13T00:21:34.973Z,10.77
2017-10-13T00:21:39.983Z,11.30
2017-10-13T00:21:45.000Z,11.23
2017-10-13T00:21:50.025Z,11.10
2017-10-13T00:21:54.274Z,11.77
2017-10-13T00:21:58.604Z,12.30
2017-10-13T00:22:02.859Z,12.35
2017-10-13T00:22:07.149Z,12.10
2017-10-13T00:22:12.174Z,11.90
2017-10-13T00:22:16.467Z,11.43
2017-10-13T00:22:20.716Z,11.10
2017-10-13T00:22:24.975Z,11.13
2017-10-13T00:22:29.273Z,11.05
2017-10-13T00:22:33.524Z,11.30
2017-10-13T00:22:37.778Z,11.33
2017-10-13T00:22:42.044Z,11.55
2017-10-13T00:22:47.064Z,11.55
2017-10-13T00:22:52.088Z,11.40
2017-10-13T00:22:57.186Z,10.73
2017-10-13T00:23:01.836Z,10.95
2017-10-13T00:23:06.084Z,11.30
2017-10-13T00:23:10.337Z,11.30
2017-10-13T00:23:14.596Z,11.55
2017-10-13T00:23:18.860Z,11.33
2017-10-13T00:23:23.119Z,10.80
2017-10-13T00:23:28.119Z,11.25
2017-10-13T00:23:32.376Z,11.07
2017-10-13T00:23:36.661Z,10.80
2017-10-13T00:23:40.907Z,11.10
2017-10-13T00:23:45.965Z,11.70
2017-10-13T00:23:50.217Z,11.80
2017-10-13T00:23:54.464Z,11.57
2017-10-13T00:23:58.721Z,11.40
2017-10-13T00:24:02.989Z,11.65
2017-10-13T00:24:07.241Z,11.65
2017-10-13T00:24:11.504Z,12.03
2017-10-13T00:24:15.825Z,12.00
2017-10-13T00:24:20.068Z,12.60
2017-10-13T00:24:24.348Z,12.93
2017-10-13T00:24:29.411Z,12.85
2017-10-13T00:24:33.660Z,12.97
2017-10-13T00:24:37.913Z,12.70
2017-10-13T00:24:42.256Z,12.30
2017-10-13T00:24:46.522Z,11.80
2017-10-13T00:24:50.777Z,11.80
2017-10-13T00:24:55.837Z,12.95
2017-10-13T00:25:00.085Z,12.97
2017-10-13T00:25:04.352Z,12.47
2017-10-13T00:25:08.724Z,12.85
2017-10-13T00:25:12.993Z,12.50
2017-10-13T00:25:17.256Z,12.83
2017-10-13T00:25:21.544Z,12.35
2017-10-13T00:25:25.806Z,12.60
2017-10-13T00:25:30.828Z,11.85
2017-10-13T00:25:35.084Z,11.65
2017-10-13T00:25:39.327Z,11.50
2017-10-13T00:25:44.344Z,11.40
2017-10-13T00:25:49.374Z,12.00
2017-10-13T00:25:53.623Z,11.73
2017-10-13T00:25:57.903Z,10.70
2017-10-13T00:26:02.164Z,10.60
2017-10-13T00:26:07.219Z,9.70
2017-10-13T00:26:11.474Z,9.50
2017-10-13T00:26:16.487Z,8.70
2017-10-13T00:26:21.545Z,8.50
2017-10-13T00:26:25.809Z,8.33
2017-10-13T00:26:30.070Z,8.77
2017-10-13T00:26:34.324Z,8.70
2017-10-13T00:26:39.328Z,9.15
2017-10-13T00:26:43.609Z,9.67
2017-10-13T00:26:47.868Z,10.07
2017-10-13T00:26:52.116Z,10.35
2017-10-13T00:26:56.406Z,10.60
2017-10-13T00:27:00.654Z,10.95
2017-10-13T00:27:04.941Z,11.53
2017-10-13T00:27:09.975Z,11.80
2017-10-13T00:27:14.232Z,11.87
2017-10-13T00:27:18.572Z,11.95
2017-10-13T00:27:22.838Z,12.23
2017-10-13T00:27:27.101Z,12.05
2017-10-13T00:27:31.372Z,12.55
2017-10-13T00:27:35.662Z,12.67
2017-10-13T00:27:40.692Z,11.85
2017-10-13T00:27:44.928Z,11.27
2017-10-13T00:27:49.185Z,10.70
2017-10-13T00:27:54.202Z,10.20
2017-10-13T00:27:59.208Z,10.07
2017-10-13T00:28:04.215Z,9.83
2017-10-13T00:28:08.571Z,9.57
2017-10-13T00:28:12.806Z,9.85
2017-10-13T00:28:17.052Z,9.95
2017-10-13T00:28:21.326Z,9.75
2017-10-13T00:28:25.568Z,10.17
2017-10-13T00:28:29.872Z,9.50
2017-10-13T00:28:34.122Z,9.30
2017-10-13T00:28:38.365Z,9.27
2017-10-13T00:28:42.620Z,9.15
2017-10-13T00:28:46.868Z,9.30
2017-10-13T00:28:51.128Z,9.55
2017-10-13T00:28:55.404Z,9.77
2017-10-13T00:28:59.648Z,9.85
2017-10-13T00:29:03.900Z,9.90
2017-10-13T00:29:08.163Z,10.10
2017-10-13T00:29:12.451Z,10.40
2017-10-13T00:29:16.715Z,10.45
2017-10-13T00:29:20.997Z,10.25
2017-10-13T00:29:25.231Z,9.87
2017-10-13T00:29:29.484Z,10.35
2017-10-13T00:29:33.744Z,10.60
2017-10-13T00:29:38.745Z,10.70
2017-10-13T00:29:42.996Z,10.70
2017-10-13T00:29:47.260Z,10.33
2017-10-13T00:29:52.303Z,10.15
2017-10-13T00:29:56.607Z,9.63
2017-10-13T00:30:00.935Z,9.70
2017-10-13T00:30:05.184Z,9.60
2017-10-13T00:30:10.212Z,9.55
2017-10-13T00:30:14.552Z,9.33
2017-10-13T00:30:18.777Z,9.25
2017-10-13T00:30:23.068Z,9.53
2017-10-13T00:30:27.335Z,10.65
2017-10-13T00:30:31.584Z,10.80
2017-10-13T00:30:35.840Z,10.70
2017-10-13T00:30:40.094Z,11.00
2017-10-13T00:30:45.128Z,11.10
2017-10-13T00:30:49.412Z,11.27
2017-10-13T00:30:55.227Z,11.40
2017-10-13T00:30:59.527Z,11.63
2017-10-13T00:31:04.574Z,11.93
2017-10-13T00:31:09.892Z,11.57
2017-10-13T00:31:14.163Z,11.53
2017-10-13T00:31:18.395Z,11.80
2017-10-13T00:31:23.409Z,11.70
2017-10-13T00:31:27.690Z,10.53
2017-10-13T00:31:32.041Z,9.90
2017-10-13T00:31:36.377Z,10.10
2017-10-13T00:31:40.644Z,10.20
2017-10-13T00:31:44.931Z,10.87
2017-10-13T00:31:49.961Z,11.45
2017-10-13T00:31:54.212Z,11.50
2017-10-13T00:31:58.465Z,11.40
2017-10-13T00:32:03.554Z,10.90
2017-10-13T00:32:08.593Z,10.70
2017-10-13T00:32:12.852Z,10.63
2017-10-13T00:32:17.098Z,10.60
2017-10-13T00:32:21.465Z,10.75
2017-10-13T00:32:25.732Z,11.13
2017-10-13T00:32:29.985Z,11.55
2017-10-13T00:32:35.108Z,11.75
2017-10-13T00:32:40.140Z,11.67
2017-10-13T00:32:44.393Z,10.83
2017-10-13T00:32:49.189Z,10.53
2017-10-13T00:32:53.442Z,10.67
2017-10-13T00:32:57.768Z,10.75
2017-10-13T00:33:02.089Z,11.70
2017-10-13T00:33:06.338Z,11.60
2017-10-13T00:33:11.369Z,11.55
2017-10-13T00:33:15.839Z,11.53
2017-10-13T00:33:20.101Z,11.05
2017-10-13T00:33:24.393Z,10.77
2017-10-13T00:33:28.692Z,11.35
2017-10-13T00:33:32.969Z,11.45
2017-10-13T00:33:37.976Z,11.50
2017-10-13T00:33:42.223Z,11.70
2017-10-13T00:33:46.473Z,11.90
2017-10-13T00:33:50.814Z,11.60
2017-10-13T00:33:55.813Z,12.05
2017-10-13T00:34:00.439Z,11.63
2017-10-13T00:34:04.738Z,11.23
2017-10-13T00:34:09.405Z,11.35
2017-10-13T00:34:13.648Z,11.97
2017-10-13T00:34:17.904Z,12.60
2017-10-13T00:34:22.177Z,12.53
2017-10-13T00:34:26.435Z,12.15
2017-10-13T00:34:30.693Z,11.30
2017-10-13T00:34:34.956Z,11.10
2017-10-13T00:34:39.215Z,11.13
2017-10-13T00:34:43.460Z,11.10
2017-10-13T00:34:47.721Z,10.90
2017-10-13T00:34:52.749Z,10.53
2017-10-13T00:34:57.772Z,10.53
2017-10-13T00:35:02.785Z,11.07
2017-10-13T00:35:07.860Z,11.03
2017-10-13T00:35:12.122Z,10.53
2017-10-13T00:35:16.392Z,10.05
2017-10-13T00:35:20.658Z,10.40
2017-10-13T00:35:24.936Z,10.70
2017-10-13T00:35:29.186Z,11.05
2017-10-13T00:35:33.436Z,10.90
2017-10-13T00:35:37.721Z,10.60
2017-10-13T00:35:41.980Z,10.57
2017-10-13T00:35:46.232Z,10.55
2017-10-13T00:35:50.520Z,11.20
2017-10-13T00:35:54.940Z,11.30
2017-10-13T00:35:59.180Z,11.40
2017-10-13T00:36:03.429Z,11.25
2017-10-13T00:36:08.220Z,11.23
2017-10-13T00:36:13.259Z,11.60
2017-10-13T00:36:17.589Z,11.70
2017-10-13T00:36:21.868Z,11.67
2017-10-13T00:36:26.111Z,11.40
2017-10-13T00:36:30.369Z,11.00
2017-10-13T00:36:34.628Z,11.60
2017-10-13T00:36:38.872Z,12.20
2017-10-13T00:36:43.131Z,11.95
2017-10-13T00:36:47.381Z,12.25
2017-10-13T00:36:51.657Z,12.03
2017-10-13T00:36:55.905Z,11.75
2017-10-13T00:37:00.170Z,11.40
2017-10-13T00:37:04.409Z,11.47
2017-10-13T00:37:08.696Z,11.60
2017-10-13T00:37:13.947Z,11.80
2017-10-13T00:37:18.193Z,11.57
2017-10-13T00:37:22.455Z,11.40
2017-10-13T00:37:26.702Z,11.60
2017-10-13T00:37:30.964Z,11.65
2017-10-13T00:37:36.012Z,10.90
2017-10-13T00:37:40.266Z,10.73
2017-10-13T00:37:44.528Z,10.65
2017-10-13T00:37:48.808Z,10.15
2017-10-13T00:37:53.071Z,10.40
2017-10-13T00:37:57.317Z,11.30
2017-10-13T00:38:01.610Z,11.40
2017-10-13T00:38:05.856Z,11.50
2017-10-13T00:38:10.122Z,11.15
2017-10-13T00:38:14.440Z,11.30
2017-10-13T00:38:18.692Z,11.80
2017-10-13T00:38:22.951Z,12.05
2017-10-13T00:38:27.268Z,11.57
2017-10-13T00:38:32.329Z,11.60
2017-10-13T00:38:36.576Z,11.57
2017-10-13T00:38:40.883Z,11.45
2017-10-13T00:38:45.204Z,11.90
2017-10-13T00:38:50.228Z,12.30
2017-10-13T00:38:55.252Z,12.53
2017-10-13T00:39:00.313Z,12.17
2017-10-13T00:39:04.552Z,12.07
2017-10-13T00:39:08.808Z,12.85
2017-10-13T00:39:13.841Z,12.43
2017-10-13T00:39:18.101Z,11.90
2017-10-13T00:39:22.376Z,11.45
2017-10-13T00:39:26.644Z,11.65
2017-10-13T00:39:30.934Z,11.63
2017-10-13T00:39:35.184Z,11.65
2017-10-13T00:39:39.458Z,11.95
2017-10-13T00:39:43.724Z,11.55
2017-10-13T00:39:48.072Z,11.37
2017-10-13T00:39:52.320Z,10.40
2017-10-13T00:39:56.577Z,9.95
2017-10-13T00:40:00.837Z,10.03
2017-10-13T00:40:05.092Z,10.30
2017-10-13T00:40:10.137Z,10.10
2017-10-13T00:40:15.140Z,10.33
2017-10-13T00:40:19.399Z,10.20
2017-10-13T00:40:23.650Z,10.67
2017-10-13T00:40:27.940Z,11.05
2017-10-13T00:40:32.962Z,11.40
2017-10-13T00:40:37.212Z,11.40
2017-10-13T00:40:41.565Z,11.65
2017-10-13T00:40:46.576Z,11.77
2017-10-13T00:40:51.590Z,11.77
2017-10-13T00:40:56.628Z,12.30
2017-10-13T00:41:00.902Z,12.10
2017-10-13T00:41:05.924Z,11.95
2017-10-13T00:41:10.942Z,11.87
2017-10-13T00:41:15.999Z,11.50
2017-10-13T00:41:20.325Z,11.73
2017-10-13T00:41:24.593Z,12.00
2017-10-13T00:41:28.865Z,11.85
2017-10-13T00:41:33.172Z,11.40
2017-10-13T00:41:37.424Z,11.20
2017-10-13T00:41:41.707Z,10.85
2017-10-13T00:41:45.952Z,10.70
2017-10-13T00:41:50.201Z,10.45
2017-10-13T00:41:54.484Z,10.10
2017-10-13T00:41:58.741Z,10.05
2017-10-13T00:42:02.984Z,9.95
2017-10-13T00:42:07.250Z,9.95
2017-10-13T00:42:11.508Z,10.10
2017-10-13T00:42:15.771Z,10.50
2017-10-13T00:42:20.844Z,10.15
2017-10-13T00:42:25.100Z,9.33
2017-10-13T00:42:29.355Z,9.70
2017-10-13T00:42:33.607Z,10.50
2017-10-13T00:42:37.873Z,11.00
2017-10-13T00:42:42.104Z,10.90
2017-10-13T00:42:46.375Z,11.20
2017-10-13T00:42:50.629Z,12.00
2017-10-13T00:42:54.875Z,12.05
2017-10-13T00:42:59.913Z,12.10
2017-10-13T00:43:04.207Z,11.93
2017-10-13T00:43:08.459Z,11.65
2017-10-13T00:43:12.713Z,12.40
2017-10-13T00:43:17.736Z,12.60
2017-10-13T00:43:22.755Z,12.75
2017-10-13T00:43:27.026Z,12.63
2017-10-13T00:43:31.256Z,12.05
2017-10-13T00:43:36.300Z,11.70
2017-10-13T00:43:40.572Z,12.40
2017-10-13T00:43:45.588Z,12.20
2017-10-13T00:43:49.837Z,12.27
2017-10-13T00:43:54.135Z,12.07
2017-10-13T00:43:58.386Z,11.80
2017-10-13T00:44:02.630Z,12.40
2017-10-13T00:44:06.888Z,12.40
2017-10-13T00:44:11.941Z,11.80
2017-10-13T00:44:16.173Z,11.10
2017-10-13T00:44:20.472Z,11.10
2017-10-13T00:44:24.704Z,11.05
2017-10-13T00:44:29.748Z,11.50
2017-10-13T00:44:34.085Z,12.40
2017-10-13T00:44:38.338Z,11.60
2017-10-13T00:44:42.604Z,11.80
2017-10-13T00:44:46.865Z,11.43
2017-10-13T00:44:51.123Z,11.40
2017-10-13T00:44:56.145Z,11.40
2017-10-13T00:45:01.188Z,11.60
2017-10-13T00:45:05.443Z,10.83
2017-10-13T00:45:09.710Z,10.80
2017-10-13T00:45:13.997Z,11.00
2017-10-13T00:45:18.250Z,11.05
2017-10-13T00:45:22.497Z,10.90
2017-10-13T00:45:26.785Z,10.30
2017-10-13T00:45:31.062Z,9.75
2017-10-13T00:45:35.336Z,9.70
2017-10-13T00:45:39.599Z,10.43
2017-10-13T00:45:43.862Z,11.90
2017-10-13T00:45:48.884Z,11.80
2017-10-13T00:45:53.983Z,11.13
2017-10-13T00:45:58.240Z,10.80
2017-10-13T00:46:02.519Z,10.87
2017-10-13T00:46:06.778Z,11.15
2017-10-13T00:46:11.026Z,12.15
2017-10-13T00:46:15.276Z,12.40
2017-10-13T00:46:19.545Z,12.40
2017-10-13T00:46:24.107Z,12.50
2017-10-13T00:46:29.129Z,12.90
2017-10-13T00:46:34.230Z,12.63
2017-10-13T00:46:38.502Z,13.03
2017-10-13T00:46:42.771Z,12.45
2017-10-13T00:46:47.032Z,12.10
2017-10-13T00:46:52.061Z,13.47
2017-10-13T00:46:56.316Z,13.70
2017-10-13T00:47:00.593Z,13.65
2017-10-13T00:47:04.845Z,13.35
2017-10-13T00:47:09.098Z,13.20
2017-10-13T00:47:13.532Z,12.13
2017-10-13T00:47:18.592Z,12.55
2017-10-13T00:47:23.616Z,12.90
2017-10-13T00:47:29.374Z,13.37
2017-10-13T00:47:33.658Z,14.68
2017-10-13T00:47:38.652Z,14.40
2017-10-13T00:47:43.157Z,13.30
2017-10-13T00:47:47.461Z,13.40
2017-10-13T00:47:51.715Z,12.90
2017-10-13T00:47:55.975Z,12.77
2017-10-13T00:48:01.031Z,12.60
2017-10-13T00:48:05.276Z,12.70
2017-10-13T00:48:09.530Z,13.45
2017-10-13T00:48:13.830Z,13.05
2017-10-13T00:48:18.094Z,12.73
2017-10-13T00:48:23.115Z,12.30
2017-10-13T00:48:28.130Z,12.20
2017-10-13T00:48:33.220Z,12.03
2017-10-13T00:48:37.458Z,11.60
2017-10-13T00:48:42.472Z,12.00
2017-10-13T00:48:47.529Z,12.17
2017-10-13T00:48:51.760Z,12.40
2017-10-13T00:48:56.813Z,12.85
2017-10-13T00:49:01.408Z,13.07
2017-10-13T00:49:05.653Z,12.70
2017-10-13T00:49:09.919Z,13.17
2017-10-13T00:49:15.156Z,13.80
2017-10-13T00:49:19.412Z,14.10
2017-10-13T00:49:23.787Z,14.47
2017-10-13T00:49:28.034Z,13.45
2017-10-13T00:49:33.061Z,12.75
2017-10-13T00:49:37.324Z,12.37
2017-10-13T00:49:41.581Z,11.80
2017-10-13T00:49:45.832Z,11.75
2017-10-13T00:49:50.233Z,11.30
2017-10-13T00:49:54.576Z,10.67
2017-10-13T00:49:58.832Z,11.10
2017-10-13T00:50:03.080Z,11.40
2017-10-13T00:50:07.380Z,11.10
2017-10-13T00:50:11.644Z,11.00
2017-10-13T00:50:15.894Z,11.15
2017-10-13T00:50:20.184Z,10.85
2017-10-13T00:50:24.432Z,10.93
2017-10-13T00:50:28.744Z,10.90
2017-10-13T00:50:33.031Z,10.80
2017-10-13T00:50:37.265Z,10.90
2017-10-13T00:50:42.281Z,10.77
2017-10-13T00:50:46.599Z,10.80
2017-10-13T00:50:50.859Z,11.15
2017-10-13T00:51:05.654Z,11.70
2017-10-13T00:51:09.906Z,11.55
2017-10-13T00:51:14.265Z,11.05
2017-10-13T00:51:18.543Z,10.60
2017-10-13T00:51:22.772Z,10.30
2017-10-13T00:51:27.157Z,10.50
2017-10-13T00:51:32.174Z,10.93
2017-10-13T00:51:36.496Z,10.93
2017-10-13T00:51:40.837Z,10.95
2017-10-13T00:51:45.080Z,10.70
2017-10-13T00:51:49.336Z,10.70
2017-10-13T00:51:53.648Z,10.55
2017-10-13T00:51:57.871Z,10.45
2017-10-13T00:52:02.893Z,10.27
2017-10-13T00:52:07.180Z,10.37
2017-10-13T00:52:11.492Z,10.95
2017-10-13T00:52:16.513Z,11.75
2017-10-13T00:52:21.614Z,11.97
2017-10-13T00:52:25.868Z,11.50
2017-10-13T00:52:30.209Z,11.93
2017-10-13T00:52:34.473Z,12.75
2017-10-13T00:52:38.728Z,12.85
2017-10-13T00:52:43.763Z,12.90
2017-10-13T00:52:48.039Z,12.87
2017-10-13T00:52:57.479Z,12.70
2017-10-13T00:53:02.666Z,12.20
2017-10-13T00:53:07.299Z,12.17
2017-10-13T00:53:12.328Z,11.25
2017-10-13T00:53:16.604Z,11.13
2017-10-13T00:53:20.915Z,11.23
2017-10-13T00:53:25.936Z,11.45
2017-10-13T00:53:30.970Z,10.47
2017-10-13T00:53:35.213Z,9.77
2017-10-13T00:53:39.460Z,10.00
2017-10-13T00:53:43.744Z,10.50
2017-10-13T00:53:47.992Z,10.90
2017-10-13T00:53:52.262Z,11.10
2017-10-13T00:53:57.278Z,11.10
2017-10-13T00:54:02.299Z,11.40
2017-10-13T00:54:07.329Z,11.67
2017-10-13T00:54:11.589Z,11.97
2017-10-13T00:54:15.828Z,11.50
2017-10-13T00:54:20.122Z,11.55
2017-10-13T00:54:25.132Z,11.80
2017-10-13T00:54:30.173Z,12.27
2017-10-13T00:54:34.396Z,12.80
2017-10-13T00:54:38.656Z,12.97
2017-10-13T00:54:43.681Z,12.75
2017-10-13T00:54:47.968Z,12.30
2017-10-13T00:54:52.212Z,12.75
2017-10-13T00:54:56.476Z,12.80
2017-10-13T00:55:01.492Z,12.65
2017-10-13T00:55:06.536Z,12.10
2017-10-13T00:55:10.801Z,11.70
2017-10-13T00:55:15.821Z,11.70
2017-10-13T00:55:20.872Z,11.40
2017-10-13T00:55:25.138Z,11.77
2017-10-13T00:55:30.168Z,11.70
2017-10-13T00:55:35.212Z,11.40
2017-10-13T00:55:39.489Z,10.87
2017-10-13T00:55:44.495Z,10.55
2017-10-13T00:55:49.524Z,10.13
2017-10-13T00:55:54.541Z,10.00
2017-10-13T00:55:58.800Z,9.67
2017-10-13T00:56:03.058Z,9.35
2017-10-13T00:56:08.073Z,9.37
2017-10-13T00:56:12.332Z,9.13
2017-10-13T00:56:16.693Z,9.75
2017-10-13T00:56:20.961Z,9.85
2017-10-13T00:56:25.228Z,9.13
2017-10-13T00:56:29.477Z,8.90
2017-10-13T00:56:33.769Z,8.60
2017-10-13T00:56:38.025Z,8.87
2017-10-13T00:56:42.364Z,9.75
2017-10-13T00:56:46.652Z,10.05
2017-10-13T00:56:50.900Z,9.77
2017-10-13T00:56:55.711Z,9.95
2017-10-13T00:57:00.093Z,10.30
2017-10-13T00:57:04.388Z,10.55
2017-10-13T00:57:09.418Z,10.80
2017-10-13T00:57:13.721Z,10.60
2017-10-13T00:57:17.981Z,9.90
2017-10-13T00:57:22.285Z,9.75
2017-10-13T00:57:26.580Z,9.95
2017-10-13T00:57:30.835Z,11.20
2017-10-13T00:57:35.177Z,11.40
2017-10-13T00:57:39.444Z,11.25
2017-10-13T00:57:43.685Z,10.60
2017-10-13T00:57:47.969Z,10.73
2017-10-13T00:57:52.216Z,10.80
2017-10-13T00:57:56.497Z,10.80
2017-10-13T00:58:01.603Z,11.03
2017-10-13T00:58:05.880Z,10.97
2017-10-13T00:58:10.153Z,11.35
2017-10-13T00:58:14.401Z,11.50
2017-10-13T00:58:18.660Z,11.50
2017-10-13T00:58:22.924Z,11.85
2017-10-13T00:58:27.955Z,11.60